Date,TemperatureHighF,TemperatureAvgF,TemperatureLowF,DewpointHighF,DewpointAvgF,DewpointLowF,HumidityHigh,HumidityAvg,HumidityLow,PressureMaxIn,PressureMinIn,WindSpeedMaxMPH,WindSpeedAvgMPH,GustSpeedMaxMPH,PrecipitationSumIn
2014-1-1,11.6,7.7,2.4,5.8,2.8,-1.6,85,80,76,30.61,30.29,17,7,17,0.00
2014-1-2,12.9,2.5,-5.5,8.2,-2.3,-9.4,90,80,66,30.68,30.56,12,3,12,0.00
2014-1-3,37.7,22.8,4.7,29.5,16.6,0.4,85,77,68,30.55,29.70,24,14,24,0.00
2014-1-4,38.6,21.2,6.3,32.3,15.0,-0.8,84,77,72,30.41,29.75,24,11,24,0.00
2014-1-5,9.2,1.9,-8.7,-0.7,-8.1,-17.7,73,62,44,30.76,30.41,25,12,25,0.00
2014-1-6,6.7,-3.4,-9.5,-7.0,-12.2,-18.5,83,66,51,30.74,30.49,22,7,22,0.00
2014-1-7,29.1,13.1,-7.2,15.7,5.0,-10.9,85,70,56,30.49,30.24,10,3,10,0.00
2014-1-8,20.9,17.0,12.9,12.5,10.6,7.3,87,76,66,30.56,30.42,12,4,12,0.00
2014-1-9,30.0,19.5,6.0,26.8,15.0,2.8,91,83,69,30.51,30.05,20,8,20,0.00
2014-1-10,35.6,30.2,26.5,33.6,29.1,24.7,98,96,90,30.04,29.65,17,4,17,0.00
2014-1-11,48.3,34.2,26.1,32.3,25.8,20.5,92,73,37,29.94,29.76,20,6,20,0.00
2014-1-12,51.4,43.4,35.7,34.9,30.0,26.0,76,59,45,29.79,29.55,20,6,20,0.00
2014-1-13,48.1,39.1,28.2,32.1,26.6,22.8,85,62,40,29.96,29.75,16,7,16,0.00
2014-1-14,48.1,33.8,18.7,35.0,16.7,5.2,68,50,29,30.36,29.75,34,13,34,0.00
2014-1-15,43.4,26.9,6.9,31.0,15.4,1.5,81,62,49,30.37,29.89,21,6,21,0.00
2014-1-16,45.1,34.2,17.2,30.9,17.7,3.8,61,51,42,30.21,29.84,35,17,35,0.00
2014-1-17,33.7,20.3,11.7,17.2,6.1,-0.0,65,54,36,30.32,29.94,18,8,18,0.00
2014-1-18,42.2,33.3,16.1,30.1,22.1,11.8,90,64,50,30.21,29.78,41,13,41,0.00
2014-1-19,66.7,42.1,18.1,25.9,20.8,14.6,92,49,15,30.13,29.79,29,8,29,0.00
2014-1-20,45.2,29.1,3.0,29.0,17.4,-6.5,76,62,43,30.62,29.94,32,11,32,0.00
2014-1-21,29.4,11.0,-2.2,20.6,-3.8,-10.2,71,53,31,30.68,30.24,22,7,22,0.00
2014-1-22,30.2,18.3,-0.9,20.8,8.5,-9.4,84,66,46,30.78,30.23,26,10,26,0.00
2014-1-23,16.8,4.6,-4.9,-3.9,-7.7,-11.1,75,58,37,31.05,30.63,20,6,20,0.00
2014-1-24,52.2,34.3,13.7,36.2,18.3,-6.8,66,52,38,30.63,29.83,28,13,28,0.00
2014-1-25,45.9,37.4,30.7,34.3,26.8,15.8,88,66,47,30.17,29.65,30,10,30,0.00
2014-1-26,53.1,36.2,5.7,32.9,20.0,-7.7,71,52,28,30.42,29.63,40,16,40,0.00
2014-1-27,11.8,3.4,-6.3,-4.3,-9.2,-12.6,76,57,37,30.68,30.43,17,5,17,0.00
2014-1-28,20.3,4.0,-8.2,-2.9,-8.0,-13.3,79,60,32,30.68,30.42,20,3,20,0.00
2014-1-29,46.7,23.5,-3.6,16.5,5.1,-8.8,81,51,22,30.42,29.70,33,8,33,0.00
2014-1-30,41.6,29.6,17.9,24.4,13.3,8.6,72,53,31,30.20,29.51,28,12,28,0.00
2014-1-31,24.7,18.3,12.7,16.2,8.7,3.6,88,66,53,30.32,30.12,10,3,10,0.00
2014-2-1,23.2,18.5,8.1,19.4,12.7,2.8,91,78,63,30.47,30.07,22,6,22,0.00
2014-2-2,30.2,12.5,-5.5,13.9,4.6,-9.6,87,72,49,30.56,30.39,17,4,17,0.00
2014-2-3,32.1,21.0,6.2,16.8,10.8,2.5,86,66,46,30.40,30.31,15,4,15,0.00
2014-2-4,23.2,14.8,3.0,18.2,10.1,-0.5,88,82,65,30.61,30.37,24,9,24,0.00
2014-2-5,9.5,3.4,-6.2,-0.3,-3.6,-11.3,86,73,54,30.86,30.61,23,10,23,0.00
2014-2-6,9.3,-0.0,-8.5,0.3,-7.2,-14.3,81,71,60,30.85,30.61,17,5,17,0.00
2014-2-7,16.1,8.7,-2.0,7.3,2.0,-6.7,84,74,57,30.61,30.31,20,6,20,0.00
2014-2-8,24.1,18.2,11.3,17.6,12.9,7.4,89,80,64,30.39,30.18,14,7,14,0.00
2014-2-9,18.2,10.4,2.0,14.4,4.0,-2.7,85,75,67,30.63,30.39,16,6,16,0.00
2014-2-10,12.9,2.9,-8.1,2.8,-3.0,-12.1,85,76,62,30.72,30.63,8,2,8,0.00
2014-2-11,21.8,14.0,2.6,12.0,6.9,-1.6,84,73,63,30.66,30.22,24,10,24,0.00
2014-2-12,27.2,23.2,18.0,24.8,19.0,11.6,93,84,73,30.28,29.94,21,7,21,0.00
2014-2-13,52.7,38.5,26.0,33.0,27.1,19.9,88,66,37,29.96,29.78,22,8,22,0.00
2014-2-14,30.2,22.6,15.1,22.2,15.2,10.4,86,74,49,30.22,29.72,16,7,16,0.00
2014-2-15,57.2,33.2,17.2,34.3,23.6,12.6,86,70,28,30.19,29.89,33,11,33,0.01
2014-2-16,35.9,28.3,21.3,28.4,24.4,19.3,93,85,73,30.26,29.94,25,10,25,0.12
2014-2-17,54.0,39.3,29.0,33.5,25.7,18.3,95,63,27,30.07,29.89,27,9,27,0.00
2014-2-18,64.6,48.2,35.0,30.2,24.5,21.0,65,41,21,30.04,29.72,26,10,26,0.00
2014-2-19,54.4,39.1,22.7,32.1,24.4,16.8,88,60,24,30.04,29.66,28,7,28,0.00
2014-2-20,40.4,33.4,24.8,33.2,26.3,16.4,96,76,57,29.89,29.59,34,12,34,0.00
2014-2-21,47.4,31.7,19.9,30.9,21.6,14.7,90,68,41,30.00,29.87,25,6,25,0.00
2014-2-22,39.7,31.1,25.2,27.5,21.5,13.4,92,69,44,30.34,29.99,13,5,13,0.00
2014-2-23,31.7,24.3,19.4,15.1,10.8,6.7,79,57,39,30.52,30.34,14,4,14,0.00
2014-2-24,24.0,22.2,20.1,20.3,17.6,12.6,93,83,64,30.51,30.34,13,4,13,0.00
2014-2-25,20.6,11.7,5.6,18.5,5.0,-0.9,92,75,58,30.69,30.47,20,8,20,0.00
2014-2-26,35.1,16.9,-3.9,18.5,7.2,-7.5,87,67,44,30.68,30.09,26,7,26,0.00
2014-2-27,22.8,13.6,4.0,12.3,-1.5,-10.8,78,52,30,30.35,30.03,15,7,15,0.00
2014-2-28,36.5,21.2,11.7,23.5,11.9,2.1,90,68,43,30.33,29.92,20,9,20,0.00
2014-3-1,15.2,6.4,-0.7,9.5,0.7,-7.0,83,77,71,30.73,30.33,20,10,20,0.00
2014-3-2,1.7,-2.4,-6.6,-6.5,-11.2,-15.8,76,66,54,30.85,30.71,20,8,20,0.00
2014-3-3,20.0,7.2,-9.0,7.9,-3.3,-13.3,83,63,42,30.81,30.32,26,8,26,0.00
2014-3-4,37.6,22.3,6.2,21.7,12.7,1.3,82,67,50,30.32,30.09,17,5,17,0.00
2014-3-5,33.8,23.2,16.0,20.7,16.7,13.0,92,77,57,30.44,30.25,15,6,15,0.00
2014-3-6,41.7,28.2,15.5,31.5,24.7,13.6,96,87,67,30.42,29.91,26,10,26,0.00
2014-3-7,38.6,33.5,25.9,34.8,28.8,19.8,91,83,70,30.33,29.87,21,10,21,0.00
2014-3-8,40.0,26.6,17.6,19.7,16.8,14.1,87,69,39,30.50,30.33,20,5,20,0.00
2014-3-9,73.9,51.0,23.0,32.8,25.5,15.5,73,43,16,30.39,29.87,31,10,31,0.00
2014-3-10,75.1,56.2,39.7,37.6,32.0,26.7,67,42,23,29.87,29.63,12,3,12,0.00
2014-3-11,45.7,39.1,33.0,36.7,32.9,28.3,95,79,65,30.21,29.52,37,9,37,0.00
2014-3-12,53.8,37.8,28.0,35.8,27.8,23.5,92,71,32,30.30,30.15,20,6,20,0.00
2014-3-13,67.8,48.4,28.0,32.4,24.9,19.2,84,45,17,30.16,29.73,23,7,23,0.00
2014-3-14,59.0,47.1,28.7,30.6,24.4,19.1,75,44,22,30.01,29.69,27,8,27,0.00
2014-3-15,64.7,38.5,25.7,31.9,25.1,20.4,89,63,25,30.38,29.90,28,8,28,0.00
2014-3-16,39.9,29.9,21.4,24.5,15.5,9.5,87,59,29,30.52,30.17,18,6,18,0.00
2014-3-17,60.5,42.2,24.6,30.3,22.5,14.5,71,49,27,30.17,29.50,27,13,27,0.00
2014-3-18,52.5,41.1,30.3,32.7,28.9,25.3,96,64,41,29.94,29.47,24,9,24,0.00
2014-3-19,50.7,37.5,27.9,32.9,28.6,24.5,96,73,39,30.21,29.94,21,8,21,0.00
2014-3-20,62.6,41.4,21.8,32.2,26.1,19.6,94,62,22,30.15,29.90,18,3,18,0.00
2014-3-21,55.1,41.4,29.1,34.3,28.8,22.1,83,63,37,30.36,29.84,27,10,27,0.00
2014-3-22,30.3,25.4,17.9,22.1,11.4,4.7,79,57,36,30.68,30.37,17,10,17,0.00
2014-3-23,38.7,26.5,10.7,14.0,10.1,6.6,84,53,31,30.69,30.39,16,4,16,0.00
2014-3-24,43.8,32.7,22.2,20.9,16.4,11.7,80,52,34,30.42,30.33,29,6,29,0.00
2014-3-25,38.7,28.3,19.5,22.0,12.3,4.7,85,55,26,30.53,30.26,20,6,20,0.00
2014-3-26,64.3,40.8,20.4,40.5,25.9,7.5,90,57,33,30.26,29.63,45,19,45,0.00
2014-3-27,44.9,38.9,32.5,44.4,36.8,27.3,98,92,81,29.97,29.39,30,11,30,0.00
2014-3-28,40.5,32.3,23.9,31.6,27.2,20.9,89,82,69,30.38,29.97,16,5,16,0.00
2014-3-29,57.9,38.4,20.8,31.7,27.6,19.0,94,69,34,30.44,30.12,20,6,20,0.00
2014-3-30,73.8,59.0,41.2,37.8,34.5,30.5,66,42,25,30.12,29.63,29,14,29,0.00
2014-3-31,67.0,48.2,26.1,42.8,30.6,14.3,70,52,36,30.03,29.39,38,17,39,0.00
2014-4-1,42.7,31.8,21.6,22.1,19.0,15.0,76,60,42,30.25,30.03,18,4,33,0.00
2014-4-2,42.3,36.8,30.2,38.2,29.8,20.8,96,76,56,30.20,29.91,12,4,18,0.00
2014-4-3,39.3,37.0,32.8,38.4,36.1,31.9,98,97,95,29.95,29.81,11,5,17,0.00
2014-4-4,44.2,35.6,25.6,32.9,29.9,23.5,97,81,56,30.25,29.94,16,6,26,0.00
2014-4-5,62.2,41.5,21.4,34.3,27.5,19.8,96,64,30,30.24,30.02,17,5,27,0.00
2014-4-6,62.7,52.2,40.0,40.9,37.1,31.3,87,58,41,30.04,29.87,13,5,20,0.00
2014-4-7,63.2,51.3,37.4,41.7,35.7,27.5,92,60,27,30.04,29.86,13,4,21,0.00
2014-4-8,57.7,45.4,32.3,35.7,29.1,19.6,85,57,24,30.20,30.03,12,4,20,0.00
2014-4-9,81.3,57.0,29.8,37.1,27.5,18.6,79,37,15,30.14,29.65,16,4,25,0.00
2014-4-10,66.7,56.9,40.3,40.0,29.9,18.5,66,39,17,30.06,29.61,18,4,26,0.00
2014-4-11,76.0,59.2,38.0,36.7,29.2,22.5,73,35,18,30.11,29.83,14,4,21,0.00
2014-4-12,80.5,68.1,55.4,58.1,51.2,36.1,82,56,39,29.83,29.52,12,5,20,0.00
2014-4-13,60.8,42.8,31.7,49.9,38.8,25.8,95,86,68,30.09,29.61,19,10,29,0.12
2014-4-14,40.7,32.2,27.0,27.4,22.2,15.3,89,67,42,30.36,30.08,17,6,28,1.44
2014-4-15,55.0,37.8,18.9,31.7,24.7,16.3,92,63,33,30.33,29.88,16,5,26,0.00
2014-4-16,63.6,47.6,33.9,37.9,28.6,24.0,77,50,28,30.22,29.75,22,10,32,0.00
2014-4-17,54.5,40.0,30.5,28.3,25.8,23.1,81,60,31,30.44,30.22,12,4,20,0.00
2014-4-18,69.0,49.1,26.6,42.0,34.3,22.5,89,61,35,30.36,30.12,20,7,30,0.04
2014-4-19,76.8,65.1,51.5,50.8,46.3,40.6,67,52,39,30.12,29.97,18,7,28,0.52
2014-4-20,82.3,66.2,57.5,58.9,52.5,46.1,93,64,36,30.00,29.93,15,4,23,0.20
2014-4-21,72.8,63.6,51.9,57.4,41.4,24.9,91,52,17,30.19,29.93,15,6,24,0.08
2014-4-22,69.2,53.8,34.4,38.1,34.1,30.8,90,52,27,30.22,29.99,12,4,18,0.96
2014-4-23,62.6,53.9,49.0,49.5,43.1,36.1,93,68,53,30.01,29.65,20,9,33,0.42
2014-4-24,67.9,55.0,42.0,50.0,44.3,27.3,97,72,22,29.87,29.66,13,4,24,0.45
2014-4-25,78.3,57.8,36.7,48.2,39.4,34.4,94,59,22,29.91,29.78,17,4,25,4.95
2014-4-26,79.4,62.4,40.9,58.4,48.7,38.2,92,64,38,29.81,29.50,21,6,34,0.00
2014-4-27,69.7,63.6,58.0,61.4,57.0,53.2,94,79,64,29.50,29.23,18,8,27,0.26
2014-4-28,62.7,55.7,46.8,58.4,48.4,43.6,94,77,56,29.44,29.23,13,4,18,0.12
2014-4-29,49.8,42.8,39.8,48.2,40.0,35.7,95,90,83,30.00,29.44,14,7,24,0.28
2014-4-30,46.8,43.4,40.5,39.5,37.2,33.7,92,79,62,30.07,29.99,15,7,27,0.01
2014-5-1,50.4,45.0,40.2,40.4,38.2,35.4,95,78,60,30.08,30.01,12,5,22,0.02
2014-5-2,71.8,53.9,37.6,44.5,37.5,30.8,84,57,27,30.07,29.84,16,4,23,0.24
2014-5-3,74.5,59.2,42.4,44.5,39.7,35.3,82,52,28,30.00,29.92,6,2,9,0.00
2014-5-4,68.0,56.5,48.2,45.7,41.7,37.3,80,59,42,30.02,29.83,12,4,22,0.00
2014-5-5,73.6,59.3,44.1,45.8,42.8,39.7,85,57,34,29.92,29.80,11,3,17,0.00
2014-5-6,81.7,65.2,49.4,59.6,51.0,43.0,80,61,45,29.83,29.53,11,3,20,0.00
2014-5-7,94.0,72.4,51.9,63.7,54.6,34.8,96,63,13,29.66,29.47,16,3,24,1.55
2014-5-8,78.7,62.8,47.7,66.1,55.1,40.5,98,78,34,29.88,29.56,20,6,29,0.02
2014-5-9,70.3,54.8,42.1,46.0,40.0,36.4,86,61,30,29.95,29.83,16,4,24,0.00
2014-5-10,82.3,65.5,49.5,56.6,46.6,32.6,88,57,17,29.89,29.73,17,4,29,0.03
2014-5-11,70.3,60.6,51.2,65.7,55.5,42.6,97,84,54,29.91,29.58,20,3,30,1.96
2014-5-12,54.6,48.0,44.8,53.5,46.0,40.9,97,93,85,30.13,29.74,13,6,21,0.27
2014-5-13,61.0,50.4,41.1,41.4,37.6,33.0,89,65,36,30.35,30.13,9,4,16,0.00
2014-5-14,67.2,52.0,36.7,42.3,35.9,28.1,95,59,24,30.36,30.18,16,3,22,0.00
2014-5-15,54.2,45.6,35.0,33.5,30.2,26.2,84,57,36,30.28,30.20,12,3,20,0.00
2014-5-16,54.1,44.1,30.1,39.2,33.0,28.3,94,68,43,30.23,30.12,9,2,12,0.00
2014-5-17,64.8,52.0,37.8,44.0,36.9,28.1,95,62,27,30.22,30.14,11,2,17,0.00
2014-5-18,72.0,58.5,40.0,48.9,42.3,36.1,87,58,36,30.19,29.92,20,7,28,0.00
2014-5-19,82.9,70.5,59.7,63.2,58.4,48.5,86,67,46,29.93,29.66,17,8,32,0.00
2014-5-20,82.6,72.5,59.3,64.1,60.0,48.1,94,67,44,29.93,29.76,9,2,17,0.00
2014-5-21,81.9,68.7,59.3,50.7,48.5,45.3,65,50,28,30.15,29.93,11,3,18,0.00
2014-5-22,73.1,63.7,54.5,60.1,55.1,45.7,95,75,56,30.27,30.10,12,2,20,0.38
2014-5-23,78.0,65.2,51.7,58.5,53.3,48.1,99,70,36,30.26,30.13,10,2,17,0.00
2014-5-24,78.2,67.5,59.8,62.1,58.1,54.1,91,74,45,30.17,30.02,12,3,21,0.01
2014-5-25,83.3,69.4,64.4,69.8,65.4,62.0,99,88,58,30.07,29.91,14,2,22,1.63
2014-5-26,86.3,73.1,63.4,69.3,64.1,58.4,98,77,40,30.04,29.92,12,3,16,0.07
2014-5-27,87.9,75.0,65.2,66.2,62.9,56.8,93,69,37,30.04,29.95,8,2,12,0.01
2014-5-28,89.3,78.6,65.0,67.4,63.0,57.3,94,61,41,30.08,30.01,7,1,12,0.00
2014-5-29,84.4,72.9,59.7,66.0,62.4,58.3,96,72,45,30.11,30.00,7,1,13,0.00
2014-5-30,85.8,74.5,60.9,69.7,64.7,59.6,97,74,44,30.12,30.01,10,2,16,0.05
2014-5-31,83.8,75.1,64.7,69.0,65.5,63.3,96,74,51,30.12,29.94,11,4,18,0.01
2014-6-1,87.4,71.6,61.7,72.2,65.1,60.2,97,81,52,29.97,29.74,17,4,26,0.79
2014-6-2,82.8,70.4,60.0,64.5,59.8,53.0,98,73,37,30.04,29.82,12,4,18,0.01
2014-6-3,85.8,67.9,56.3,72.6,61.4,54.9,97,81,49,30.14,29.72,16,3,25,1.41
2014-6-4,78.7,67.9,60.8,64.9,62.5,60.2,99,84,60,29.95,29.75,7,2,16,0.01
2014-6-5,83.2,69.4,61.8,68.2,63.5,60.6,99,84,50,29.98,29.86,7,2,12,0.00
2014-6-6,85.0,73.3,59.5,68.4,62.7,58.4,99,73,42,30.02,29.90,9,1,13,0.00
2014-6-7,72.0,65.1,58.3,65.6,59.2,55.1,93,82,66,30.14,29.95,9,3,16,0.03
2014-6-8,70.3,62.2,52.3,60.4,56.2,50.9,95,82,67,30.16,29.99,7,2,12,0.00
2014-6-9,70.6,65.1,60.3,62.1,60.4,57.9,95,85,71,30.01,29.94,6,2,13,0.00
2014-6-10,81.7,68.4,56.0,60.7,56.5,51.7,95,69,40,29.99,29.88,6,1,10,0.00
2014-6-11,81.5,69.9,53.5,62.3,57.4,52.4,98,68,44,29.93,29.80,13,3,23,0.00
2014-6-12,73.5,65.7,52.3,60.9,49.4,41.8,83,58,34,30.15,29.93,12,4,20,0.00
2014-6-13,77.0,63.0,43.3,52.5,45.6,39.6,95,58,32,30.16,29.90,14,4,25,0.00
2014-6-14,84.9,74.1,61.9,71.1,63.0,52.0,77,69,62,29.92,29.56,19,9,30,0.00
2014-6-15,79.5,69.4,60.5,69.2,58.9,53.8,94,72,43,29.98,29.55,28,5,43,0.70
2014-6-16,86.6,73.0,58.1,76.9,67.6,57.0,99,85,67,29.99,29.64,24,6,35,0.07
2014-6-17,90.5,79.7,66.8,74.9,69.9,61.6,85,73,55,29.82,29.69,17,7,29,0.00
2014-6-18,91.6,83.2,75.1,74.1,72.2,70.2,87,71,51,29.85,29.74,17,7,29,0.00
2014-6-19,85.4,77.9,66.0,73.7,65.1,59.5,90,66,43,30.06,29.79,18,4,28,0.00
2014-6-20,91.5,74.8,58.0,71.5,64.6,56.3,96,74,44,30.15,29.89,17,3,28,0.80
2014-6-21,84.7,74.3,62.7,72.7,67.3,61.1,97,80,63,30.15,29.88,14,3,22,0.44
2014-6-22,82.7,74.7,66.5,71.5,67.5,63.9,96,79,58,29.95,29.83,13,2,22,0.20
2014-6-23,80.5,74.1,64.6,67.0,63.3,56.8,98,70,50,30.06,29.90,7,2,10,0.00
2014-6-24,82.8,71.2,60.3,65.0,59.8,50.3,94,71,34,30.10,30.00,6,1,9,0.00
2014-6-25,83.5,73.1,59.7,68.8,64.2,57.1,97,76,45,30.10,29.99,8,2,14,0.00
2014-6-26,83.5,73.9,64.9,73.6,68.4,63.0,97,84,62,30.03,29.84,12,3,18,0.00
2014-6-27,83.1,71.9,64.0,73.7,68.5,62.9,98,89,72,29.92,29.71,16,5,27,1.34
2014-6-28,79.3,70.1,62.9,69.9,65.7,62.1,98,87,66,29.88,29.73,13,3,24,0.93
2014-6-29,86.3,74.4,65.6,75.4,69.3,63.8,96,85,63,30.00,29.80,13,2,18,0.16
2014-6-30,80.1,73.0,65.1,76.2,68.2,58.9,99,86,50,29.87,29.68,11,1,18,0.02
2014-7-1,77.5,67.9,56.6,61.0,56.3,53.8,92,68,50,30.08,29.86,19,6,31,0.00
2014-7-2,72.2,62.1,54.4,56.9,52.7,49.1,93,73,46,30.25,30.08,9,2,16,0.00
2014-7-3,77.9,65.4,50.7,61.5,54.9,49.3,96,72,47,30.29,30.21,9,2,16,0.00
2014-7-4,81.5,69.9,54.9,63.7,59.7,53.8,97,72,50,30.29,30.14,16,5,27,0.00
2014-7-5,86.3,75.6,66.3,76.3,69.3,62.0,95,81,64,30.16,29.95,11,3,17,0.08
2014-7-6,94.5,79.5,66.0,78.6,71.5,65.4,99,79,48,29.95,29.87,9,1,12,0.01
2014-7-7,87.3,74.7,63.6,70.4,66.6,62.3,97,78,49,29.95,29.83,8,1,12,0.13
2014-7-8,80.9,71.4,60.9,66.3,59.6,54.8,90,69,42,30.09,29.94,15,4,23,0.00
2014-7-9,81.7,68.7,56.8,66.1,60.8,54.8,96,79,42,30.15,30.04,10,1,12,0.02
2014-7-10,84.2,72.7,59.8,69.6,64.9,58.9,99,78,53,30.09,30.00,14,4,24,0.00
2014-7-11,84.9,74.5,67.7,75.6,69.9,65.0,94,86,72,30.06,30.00,8,2,12,0.00
2014-7-12,83.0,75.2,69.0,74.5,70.7,66.2,96,86,68,30.09,30.03,6,2,10,0.00
2014-7-13,87.0,74.8,61.1,71.2,66.5,60.2,99,78,47,30.15,30.04,9,2,12,0.00
2014-7-14,73.3,67.3,55.4,66.9,56.0,47.8,95,70,45,30.24,30.04,11,3,20,0.08
2014-7-15,72.8,62.1,51.0,56.1,51.2,48.2,91,70,46,30.27,30.13,9,2,14,0.00
2014-7-16,75.5,63.3,48.7,58.5,51.9,47.1,96,70,41,30.17,30.09,6,0,10,0.00
2014-7-17,77.2,64.5,49.7,59.6,54.2,48.3,98,73,42,30.15,30.08,9,1,13,0.00
2014-7-18,74.7,65.7,53.8,63.9,59.5,52.5,97,82,62,30.13,30.02,13,3,26,0.00
2014-7-19,80.3,69.4,57.5,69.6,63.3,55.8,96,82,67,30.07,29.95,13,3,20,0.00
2014-7-20,88.5,75.9,63.7,76.3,68.9,61.9,95,80,62,29.97,29.85,12,4,21,0.00
2014-7-21,93.9,83.3,72.1,82.0,74.8,70.3,95,77,55,29.93,29.86,10,3,16,0.00
2014-7-22,89.3,83.2,71.0,75.1,71.5,67.0,88,69,53,30.24,29.93,10,2,15,0.00
2014-7-23,70.8,65.5,60.4,66.9,61.5,58.5,94,87,81,30.32,30.24,3,0,5,0.00
2014-7-26,86.2,81.9,75.1,77.8,75.3,72.6,93,81,71,30.02,29.87,9,1,13,0.00
2014-7-27,80.8,72.9,63.0,72.7,61.8,57.9,95,70,49,30.27,30.02,12,3,17,0.00
2014-7-28,76.5,66.1,55.1,58.7,56.6,53.4,95,73,49,30.35,30.25,9,2,14,0.00
2014-7-29,79.2,66.6,53.7,61.5,56.5,52.3,96,73,44,30.28,30.17,7,1,10,0.00
2014-7-30,80.8,67.5,53.2,63.4,56.5,51.8,96,72,39,30.23,30.16,5,0,9,0.00
2014-7-31,83.8,69.0,52.8,65.0,58.9,51.4,97,73,45,30.19,30.05,8,2,13,0.06
2014-8-1,81.6,70.5,58.3,66.8,62.7,57.3,98,79,50,30.19,30.09,6,1,12,0.03
2014-8-2,84.5,71.2,57.2,70.4,64.6,56.1,98,81,52,30.22,30.11,9,1,12,0.08
2014-8-3,88.5,75.3,62.4,71.6,65.9,59.8,95,75,45,30.17,30.06,12,2,18,0.00
2014-8-4,81.6,73.3,65.6,72.4,68.8,64.4,97,86,71,30.16,30.07,3,0,10,0.00
2014-8-5,85.3,76.1,67.1,72.1,69.2,65.9,97,81,54,30.15,30.03,8,2,14,0.00
2014-8-6,78.0,71.7,67.1,72.8,69.0,65.7,99,91,82,30.06,29.96,8,2,14,0.64
2014-8-7,73.9,69.1,65.5,68.4,66.7,64.9,99,92,81,30.03,29.98,6,1,10,0.01
2014-8-8,78.7,71.7,67.6,71.2,68.3,66.7,98,89,75,30.11,30.01,7,2,12,0.00
2014-8-9,78.4,71.1,65.6,71.9,68.5,64.6,99,92,76,30.12,29.99,8,2,12,0.47
2014-8-10,81.4,72.9,67.7,72.0,69.0,64.9,99,88,67,30.15,30.06,7,1,12,0.04
2014-8-11,76.0,69.0,59.5,67.2,60.4,55.5,95,76,50,30.24,30.14,9,2,15,0.00
2014-8-12,78.8,66.0,53.7,61.2,56.3,52.3,96,74,46,30.25,30.15,9,1,14,0.00
2014-8-13,81.8,67.5,51.8,64.7,58.5,50.7,97,76,45,30.23,30.11,7,1,10,0.00
2014-8-14,83.0,69.2,55.5,68.6,62.5,54.7,98,81,58,30.15,30.01,8,2,15,0.00
2014-8-15,71.4,68.5,65.0,69.7,65.9,61.8,98,91,82,30.02,29.91,7,1,12,0.13
2014-8-16,83.9,74.6,68.2,72.3,69.4,67.6,99,85,65,30.00,29.90,5,0,9,0.00
2014-8-17,87.1,75.4,65.6,74.0,69.6,62.8,99,84,57,30.08,29.93,17,2,23,0.15
2014-8-18,86.7,75.0,61.2,74.0,65.9,59.5,95,75,53,30.06,29.81,16,2,29,0.13
2014-8-19,87.3,75.7,64.9,70.7,66.9,62.2,96,77,47,29.92,29.84,5,1,8,0.00
2014-8-20,91.1,77.7,68.5,77.5,70.9,66.8,97,81,49,29.90,29.80,13,2,25,0.00
2014-8-21,88.3,80.9,72.4,76.1,71.3,65.1,92,73,60,29.98,29.80,18,3,24,0.01
2014-8-22,91.0,79.7,71.3,79.2,73.4,66.7,97,82,64,30.02,29.93,8,1,15,0.09
2014-8-23,89.1,76.4,67.2,77.2,71.8,66.6,99,87,61,30.06,29.80,18,2,28,0.98
2014-8-24,85.5,76.4,66.1,72.1,65.7,61.6,93,71,46,29.98,29.82,10,1,13,0.03
2014-8-25,73.0,66.9,63.0,67.8,60.7,54.6,97,81,65,30.16,29.95,9,2,16,0.18
2014-8-26,68.5,62.1,60.6,65.1,60.7,58.6,98,95,86,30.25,30.10,14,1,18,1.00
2014-8-27,75.9,69.1,65.2,71.9,67.6,64.3,99,95,82,30.23,30.09,9,1,16,0.99
2014-8-28,80.0,72.8,67.9,73.7,70.2,67.6,100,92,77,30.11,29.87,9,2,16,2.26
2014-8-29,74.2,70.0,66.0,70.4,67.9,65.1,99,93,81,29.92,29.83,10,1,14,0.04
2014-8-30,82.0,70.5,61.3,68.4,63.8,59.2,98,81,49,30.02,29.90,7,1,10,0.01
2014-8-31,81.8,69.8,63.9,74.9,66.5,62.9,98,90,70,29.90,29.69,20,2,31,1.23
2014-9-1,77.8,67.7,60.8,67.2,62.7,58.1,99,85,56,30.02,29.75,18,3,29,0.05
2014-9-2,78.3,67.2,54.0,65.8,58.4,53.1,98,76,48,30.09,29.95,7,1,12,0.00
2014-9-3,83.8,72.2,59.5,76.0,68.7,58.6,99,89,77,29.97,29.75,16,4,24,0.01
2014-9-4,85.9,77.6,67.3,73.4,69.4,55.5,88,76,64,30.07,29.74,10,4,16,0.00
2014-9-5,67.2,60.1,52.4,58.3,56.2,51.6,97,87,66,30.34,30.06,9,2,16,0.13
2014-9-6,70.7,61.0,48.7,56.8,51.4,48.2,98,74,46,30.38,30.28,5,1,9,0.01
2014-9-7,74.8,60.0,45.6,59.6,52.9,45.1,99,80,51,30.30,30.06,10,2,18,0.01
2014-9-8,85.1,69.5,54.5,72.7,63.1,52.8,95,81,62,30.07,29.82,13,4,21,0.00
2014-9-9,73.7,67.2,60.5,72.1,66.3,59.9,99,97,91,29.87,29.66,20,1,26,1.67
2014-9-10,66.9,59.0,52.1,66.6,56.7,50.5,99,92,81,30.17,29.71,13,4,24,0.01
2014-9-11,53.5,51.3,49.4,51.3,48.9,46.1,97,92,82,30.42,30.17,6,1,10,0.00
2014-9-12,53.8,47.0,39.6,47.5,44.0,38.6,97,90,64,30.53,30.41,6,1,12,0.36
2014-9-13,59.9,50.2,34.5,49.1,41.9,34.0,100,76,51,30.48,30.26,14,3,24,0.01
2014-9-14,69.5,65.0,55.5,57.7,54.0,49.8,88,69,54,30.27,30.11,10,2,15,0.00
2014-9-15,63.3,56.9,44.1,57.7,50.7,42.8,97,81,54,30.33,30.07,8,2,16,0.07
2014-9-16,68.1,55.1,38.2,55.9,47.8,37.7,99,79,51,30.33,30.04,10,2,18,0.00
2014-9-17,74.8,58.8,50.9,65.5,55.8,50.1,98,90,71,30.04,29.98,5,0,10,0.00
2014-9-18,76.0,64.5,54.7,62.8,59.4,53.8,99,85,58,30.09,29.98,11,2,17,0.00
2014-9-19,86.8,72.8,61.1,69.6,65.2,59.3,97,79,52,30.01,29.83,13,6,23,0.00
2014-9-20,83.3,73.7,61.9,68.3,62.5,53.4,94,70,40,30.15,29.85,9,2,13,0.21
2014-9-21,71.8,59.6,50.0,54.5,49.9,47.3,94,72,44,30.33,30.15,11,2,18,0.00
2014-9-22,72.1,58.1,42.9,57.8,50.1,42.1,99,78,42,30.38,30.21,9,1,14,0.01
2014-9-23,58.7,56.9,56.3,55.4,55.1,54.2,96,94,87,30.23,30.19,5,0,8,0.02
2014-9-24,56.4,56.4,56.4,55.3,55.3,55.3,96,96,96,30.23,30.23,0,0,1,0.02
2014-9-25,56.4,56.4,56.4,55.3,55.3,55.3,96,96,96,30.23,30.23,0,0,1,0.02
2014-9-26,56.4,56.4,56.4,55.3,55.3,55.3,96,96,96,30.23,30.23,0,0,1,0.02
2014-9-27,56.4,56.4,56.4,55.3,55.3,55.3,96,96,96,30.23,30.23,0,0,1,0.02
2014-9-28,56.4,56.4,56.4,55.3,55.3,55.3,96,96,96,30.23,30.23,0,0,1,0.02
2014-9-29,56.4,56.4,56.4,55.3,55.3,55.3,96,96,96,30.23,30.23,0,0,1,0.02
2014-9-30,56.4,56.4,56.4,55.3,55.3,55.3,96,96,96,30.23,30.23,0,0,1,0.02
2014-10-1,56.4,56.4,56.4,55.3,55.3,55.3,96,96,96,30.23,30.23,0,0,1,0.02
2014-10-2,56.4,56.4,56.4,55.3,55.3,55.3,96,96,96,30.23,30.23,0,0,1,0.02
2014-10-3,56.4,47.4,37.9,55.3,31.8,24.3,96,56,36,30.24,30.12,17,6,28,0.02
2014-10-4,57.0,43.9,33.8,38.5,29.9,24.8,94,61,30,30.17,29.87,13,4,20,0.00
2014-10-5,69.4,52.6,37.0,49.7,43.5,35.7,98,74,39,29.87,29.75,14,4,26,0.02
2014-10-6,70.0,57.7,49.3,52.2,45.7,40.6,89,67,35,29.83,29.69,15,4,21,0.00
2014-10-7,72.7,61.0,50.3,50.6,46.0,39.8,94,61,33,30.09,29.75,15,4,24,0.01
2014-10-8,69.5,56.1,42.4,48.3,41.1,35.3,90,60,29,30.20,30.05,7,1,12,0.01
2014-10-9,65.7,57.0,48.1,53.2,47.9,37.9,88,72,59,30.26,30.07,8,2,16,0.00
2014-10-10,53.7,46.5,34.8,40.6,36.7,33.3,95,70,50,30.34,30.24,6,1,12,0.00
2014-10-11,60.2,43.7,29.6,41.1,34.6,28.6,98,75,36,30.30,30.04,11,2,15,0.00
2014-10-12,64.3,49.5,35.6,51.4,43.7,33.1,98,82,49,30.04,29.71,14,3,21,0.22
2014-10-13,59.0,54.1,51.4,52.4,47.7,41.7,99,80,56,29.89,29.81,9,3,16,0.00
2014-10-14,65.7,54.0,42.0,44.7,39.9,35.6,85,61,34,30.09,29.89,11,3,17,0.00
2014-10-15,71.7,50.9,35.7,44.1,39.1,33.9,94,69,30,30.14,29.92,7,1,12,0.00
2014-10-16,76.5,54.5,38.8,50.4,41.8,37.0,96,68,27,29.92,29.80,10,2,18,0.00
2014-10-17,61.4,54.0,43.0,45.3,42.9,39.6,89,67,52,30.22,29.92,14,4,21,0.00
2014-10-18,59.0,46.1,36.2,42.5,39.0,34.3,94,78,50,30.34,30.19,7,1,12,0.00
2014-10-19,73.7,53.5,34.7,52.3,44.5,33.4,98,75,44,30.19,29.99,12,3,20,0.00
2014-10-20,72.7,54.6,40.5,49.8,42.9,36.1,93,70,27,30.18,30.03,7,1,12,0.00
2014-10-21,75.3,54.2,36.4,49.0,41.8,35.1,97,68,35,30.17,30.05,11,2,17,0.00
2014-10-22,78.2,61.3,51.0,60.9,52.2,42.3,98,74,45,30.13,30.01,16,6,26,0.83
2014-10-23,60.8,51.9,47.6,59.4,51.4,47.1,99,98,95,30.13,30.07,6,1,12,0.02
2014-10-24,49.6,49.6,49.6,49.3,49.3,49.3,99,99,99,30.13,30.13,1,1,1,0.00
2014-10-25,49.6,49.6,49.6,49.3,49.3,49.3,99,99,99,30.13,30.13,1,1,1,0.00
2014-10-26,61.7,50.7,49.6,56.4,50.0,49.3,99,97,83,30.13,29.60,2,1,20,0.00
2014-10-27,69.8,55.8,48.2,51.9,47.3,38.9,98,75,41,30.04,29.58,12,3,21,0.00
2014-10-28,56.9,47.1,33.1,39.6,32.3,29.0,90,59,35,30.24,30.04,17,5,29,0.00
2014-10-29,56.6,41.3,30.2,36.3,32.7,28.1,95,74,42,30.30,30.08,10,1,14,0.00
2014-10-30,60.5,47.7,35.1,43.7,38.6,32.6,93,72,52,30.45,30.04,12,4,21,0.00
2014-10-31,43.4,33.4,25.6,33.7,22.6,16.9,89,67,35,30.64,30.45,12,3,20,0.00
2014-11-1,51.9,37.0,22.8,26.2,22.0,18.1,92,59,28,30.49,30.14,19,7,32,0.00
2014-11-2,62.4,50.4,39.9,46.7,35.7,26.0,82,58,45,30.14,29.88,20,8,29,0.00
2014-11-3,64.9,54.4,42.9,53.5,47.3,38.3,84,77,65,30.12,29.82,15,6,26,0.00
2014-11-4,62.3,47.3,34.5,38.8,33.9,29.8,91,64,30,30.23,30.12,14,4,20,0.00
2014-11-5,66.5,52.9,41.7,42.6,35.6,30.8,66,52,37,30.24,30.03,16,5,29,0.00
2014-11-6,52.4,40.4,31.8,33.1,30.4,27.3,88,69,39,30.48,30.23,11,3,23,0.00
2014-11-7,61.5,48.7,33.0,43.2,35.0,27.8,82,61,42,30.24,29.80,16,5,30,0.00
2014-11-8,49.2,41.5,33.0,38.1,29.9,27.1,80,64,46,30.31,29.95,12,4,18,0.00
2014-11-9,63.4,48.7,37.9,40.0,35.9,29.7,88,63,37,29.94,29.59,10,2,20,0.00
2014-11-10,53.5,36.8,21.5,46.3,33.1,19.6,98,87,68,30.11,29.40,14,5,23,0.00
2014-11-11,24.2,19.9,14.9,19.8,13.0,8.2,92,74,64,30.53,30.10,15,6,23,0.00
2014-11-12,23.7,16.6,10.0,12.3,9.0,4.0,84,72,57,30.60,30.51,14,6,23,0.00
2014-11-13,25.0,17.8,7.5,14.5,11.2,4.0,88,76,57,30.64,30.52,11,4,16,0.00
2014-11-14,24.3,15.6,2.0,13.6,7.4,-1.0,91,71,51,30.52,30.29,8,2,12,0.00
2014-11-15,26.7,22.6,14.0,24.8,17.8,9.2,95,82,58,30.30,30.15,12,4,17,0.00
2014-11-16,25.2,13.8,2.2,20.1,7.5,-2.3,91,76,63,30.28,30.08,11,5,15,0.00
2014-11-17,17.9,12.5,5.6,11.3,4.9,-0.2,80,71,59,30.32,30.18,15,6,25,0.00
2014-11-18,36.9,20.1,6.5,27.2,11.8,0.8,81,70,54,30.29,29.90,10,3,16,0.01
2014-11-19,37.1,25.7,10.9,28.0,18.9,8.0,92,75,69,30.22,29.91,12,4,18,0.00
2014-11-20,30.1,18.8,8.8,20.7,14.4,6.5,93,83,66,30.28,30.21,4,1,6,0.01
2014-11-21,38.4,27.1,13.4,35.2,23.2,11.5,94,85,70,30.29,30.00,13,4,20,0.01
2014-11-22,55.2,43.8,35.6,52.5,41.0,34.0,98,90,69,30.01,29.58,11,4,20,0.00
2014-11-23,53.5,44.2,31.9,51.8,39.2,23.1,99,83,65,29.64,29.50,15,5,24,0.01
2014-11-24,35.7,30.1,22.3,24.6,18.9,11.4,77,64,46,30.16,29.60,16,7,25,0.00
2014-11-25,45.0,31.8,13.5,35.3,22.5,10.7,91,69,53,30.20,29.88,12,3,21,0.03
2014-11-26,38.3,28.5,16.2,34.8,24.8,12.5,91,86,82,30.51,29.88,16,8,25,0.01
2014-11-27,27.2,19.9,14.7,18.6,14.8,10.8,88,80,68,30.56,30.11,12,4,20,0.00
2014-11-28,57.4,35.6,18.5,35.3,27.1,16.5,94,74,43,30.11,29.64,12,2,18,0.00
2014-11-29,77.6,50.0,24.9,37.9,29.3,20.0,82,51,14,29.77,29.52,13,2,18,0.00
2014-11-30,25.0,16.5,10.8,20.6,5.2,-0.1,83,61,47,30.62,29.77,14,8,22,0.00
2014-12-1,20.8,15.5,12.1,4.8,2.6,0.3,68,57,42,30.77,30.42,11,4,16,0.00
2014-12-2,44.9,30.8,13.7,15.7,9.6,4.5,73,43,28,30.42,30.00,13,6,22,0.00
2014-12-3,36.9,28.1,17.5,19.0,15.8,12.4,82,61,38,30.45,30.20,6,1,9,0.00
2014-12-4,41.8,28.6,15.8,27.7,20.3,11.7,91,72,51,30.30,30.08,11,3,17,0.00
2014-12-5,50.2,35.6,28.0,41.8,32.4,26.0,98,89,72,30.44,30.07,7,2,10,0.00
2014-12-6,33.3,27.9,21.8,29.9,26.0,19.6,97,92,84,30.64,30.44,10,2,16,0.00
2014-12-7,38.2,34.6,30.9,37.9,34.1,29.8,99,98,96,30.53,30.19,13,5,20,0.00
2014-12-8,52.6,39.0,27.3,35.6,30.9,21.8,99,74,44,30.43,30.20,14,5,20,0.00
2014-12-9,29.4,24.1,19.3,25.3,21.3,16.6,95,89,80,30.52,30.36,7,2,12,0.00
2014-12-10,33.9,26.4,18.3,30.3,24.9,16.8,97,94,86,30.35,30.25,10,3,12,0.00
2014-12-11,39.6,34.8,29.0,34.8,32.1,27.4,95,90,82,30.29,30.21,10,4,16,0.00
2014-12-12,55.8,43.8,35.0,47.3,40.7,33.4,98,89,72,30.27,30.18,11,3,15,0.00
2014-12-13,52.3,50.0,47.4,51.3,48.6,45.5,98,95,91,30.18,29.93,13,6,20,0.00
2014-12-14,56.1,54.0,51.8,55.4,53.4,51.1,99,98,96,29.94,29.74,10,5,20,0.27
2014-12-15,53.0,34.5,25.3,52.5,32.6,20.8,99,93,83,30.10,29.71,17,7,27,0.20
2014-12-16,25.9,23.6,20.9,22.5,19.9,17.6,88,86,83,30.41,30.10,15,9,25,0.00
2014-12-17,25.9,22.6,19.1,21.4,18.1,15.5,89,83,75,30.41,30.29,6,2,9,0.00
2014-12-18,30.4,28.0,25.4,28.7,25.5,21.4,96,90,83,30.30,30.23,7,2,9,0.00
2014-12-19,33.5,31.6,29.6,31.6,29.6,28.0,97,92,89,30.28,30.15,10,3,17,0.00
2014-12-20,33.9,31.9,30.6,33.6,31.5,30.2,99,98,97,30.17,30.03,8,3,12,0.00
2014-12-21,41.9,38.7,33.9,41.6,38.0,33.6,100,97,94,30.03,29.65,16,6,24,0.00
2014-12-22,42.2,40.3,35.7,41.9,39.5,34.1,100,97,93,29.65,29.47,9,5,16,0.12
2014-12-23,35.7,35.7,35.7,34.1,34.1,34.1,94,94,94,29.55,29.55,4,4,8,0.00
2014-12-24,35.7,29.2,25.1,34.1,27.6,24.1,97,94,90,29.90,29.55,11,4,16,0.00
2014-12-25,47.6,35.1,26.1,34.6,29.7,25.1,96,82,57,29.74,29.52,13,4,21,0.00
2014-12-26,32.8,30.2,25.1,31.5,28.5,23.9,96,93,91,30.05,29.74,10,5,18,0.00
2014-12-27,25.1,18.9,10.3,23.7,15.8,8.2,95,88,75,30.24,30.04,10,4,13,0.00
2014-12-28,29.0,19.6,9.8,21.6,15.4,7.2,92,84,69,30.19,30.06,7,2,9,0.02
2014-12-29,20.9,15.2,2.7,19.0,12.3,-1.4,93,88,81,30.69,30.19,12,5,20,0.00
2014-12-30,4.6,0.2,-4.3,-1.1,-5.6,-8.6,84,76,65,30.87,30.69,11,4,17,0.00
2014-12-31,18.9,7.2,-5.3,8.4,0.6,-8.6,86,74,61,30.71,30.18,15,5,24,0.00
2015-1-1,34.7,21.3,9.7,22.6,13.7,3.8,89,73,53,30.18,30.00,10,4,14,0.00
2015-1-2,31.8,21.5,12.2,24.8,17.7,10.3,94,85,66,30.18,29.93,9,2,12,0.00